Time;durP1;ratioP1;P1;durP2;ratioP2;P2;SDS_P1;SDS_P2;PMS_P1;PMS_P2;Temp;Humidity;BMP_temperature;BMP_pressure;BME280_temperature;BME280_humidity;BME280_pressure;Samples;Min_cycle;Max_cycle;Signal;HPM_P1;HPM_P2
2022/01/26 00:00:06;;;;;;;98.15;42.78;;;3.50;99.90;;;;;;4989368;28;20088;-66
2022/01/26 00:08:02;;;;;;;95.67;44.73;;;3.30;99.90;;;;;;4988997;28;20069;-65
2022/01/26 00:10:28;;;;;;;101.87;47.67;;;3.20;99.90;;;;;;4988967;28;20034;-65
2022/01/26 00:12:53;;;;;;;84.20;40.83;;;3.30;99.90;;;;;;4980856;28;20042;-65
2022/01/26 00:15:19;;;;;;;98.50;44.03;;;3.30;99.90;;;;;;5010816;28;20045;-67
2022/01/26 00:17:45;;;;;;;104.47;46.27;;;3.40;99.90;;;;;;5014074;28;20100;-65
2022/01/26 00:20:52;;;;;;;96.77;43.90;;;3.30;99.90;;;;;;5030628;28;20053;-66
2022/01/26 00:23:22;;;;;;;97.47;44.07;;;3.40;99.90;;;;;;5028235;28;20034;-66
2022/01/26 00:26:05;;;;;;;94.87;43.53;;;;;;;;;;5029943;28;20378;-65
2022/01/26 00:39:23;;;;;;;95.22;43.80;;;3.30;99.90;;;;;;5010759;28;20099;-65
2022/01/26 00:41:49;;;;;;;91.27;44.03;;;3.00;99.90;;;;;;5009646;28;20387;-65
2022/01/26 00:44:15;;;;;;;108.33;46.07;;;;;;;;;;5010366;28;20022;-65
2022/01/26 00:46:47;;;;;;;99.13;41.93;;;;;;;;;;5009860;28;20494;-65
2022/01/26 00:49:16;;;;;;;107.17;46.77;;;3.10;99.90;;;;;;5025288;28;20025;-65
2022/01/26 00:51:42;;;;;;;109.07;47.47;;;;;;;;;;5029286;28;20022;-65
2022/01/26 00:54:09;;;;;;;91.47;41.77;;;3.30;99.90;;;;;;5029842;28;20029;-66
2022/01/26 00:56:35;;;;;;;100.93;45.53;;;3.00;99.90;;;;;;5029233;28;20037;-65
2022/01/26 00:59:01;;;;;;;98.30;44.83;;;3.00;99.90;;;;;;5029640;28;20343;-66
2022/01/26 01:01:27;;;;;;;101.70;47.13;;;3.20;99.90;;;;;;5029568;28;20052;-65
2022/01/26 01:03:53;;;;;;;99.57;44.80;;;;;;;;;;5029529;28;20033;-65
2022/01/26 01:06:24;;;;;;;93.13;42.53;;;;;;;;;;5029505;28;20045;-65
2022/01/26 01:08:50;;;;;;;102.87;46.90;;;;;;;;;;5029346;28;20022;-65
2022/01/26 01:11:17;;;;;;;89.37;40.93;;;;;;;;;;5029168;28;20032;-66
2022/01/26 01:13:43;;;;;;;94.63;41.47;;;3.10;99.90;;;;;;5028112;28;20045;-66
2022/01/26 01:16:15;;;;;;;102.17;43.97;;;3.10;99.90;;;;;;5029405;28;20124;-66
2022/01/26 01:18:50;;;;;;;98.20;44.07;;;;;;;;;;5028956;28;20090;-66
2022/01/26 01:21:52;;;;;;;99.13;43.03;;;3.10;99.90;;;;;;5029572;28;20037;-65
2022/01/26 01:29:24;;;;;;;101.27;44.43;;;3.10;99.90;;;;;;5029121;28;20029;-66
2022/01/26 01:32:39;;;;;;;101.53;43.00;;;2.90;99.90;;;;;;5028494;28;20017;-65
2022/01/26 01:34:40;;;;;;;94.80;44.60;;;2.90;99.90;;;;;;5017192;28;20057;-65
2022/01/26 01:37:09;;;;;;;95.80;41.43;;;3.00;99.90;;;;;;5031289;28;20026;-66
2022/01/26 01:39:36;;;;;;;74.90;33.20;;;3.10;99.90;;;;;;5028326;28;20029;-66
2022/01/26 01:42:04;;;;;;;85.40;37.63;;;3.00;99.90;;;;;;5029134;28;20025;-65
2022/01/26 01:44:30;;;;;;;94.70;42.33;;;3.20;99.90;;;;;;5011049;28;20075;-65
2022/01/26 01:46:57;;;;;;;98.10;42.30;;;;;;;;;;5028716;28;20112;-66
2022/01/26 01:49:23;;;;;;;86.27;38.10;;;3.20;99.90;;;;;;5028093;28;20498;-66
2022/01/26 01:51:54;;;;;;;88.47;40.43;;;;;;;;;;5028408;28;20056;-65
2022/01/26 01:54:20;;;;;;;92.30;42.43;;;3.00;99.90;;;;;;5010450;28;20037;-66
2022/01/26 01:56:52;;;;;;;90.87;39.30;;;3.20;99.90;;;;;;5028219;28;20032;-66
2022/01/26 01:59:18;;;;;;;92.30;40.13;;;3.10;99.90;;;;;;5028649;28;20385;-65
2022/01/26 02:01:44;;;;;;;85.40;38.63;;;3.30;99.90;;;;;;5028398;28;20030;-65
2022/01/26 02:04:09;;;;;;;97.90;42.33;;;3.30;99.90;;;;;;5028877;28;20025;-65
2022/01/26 02:06:35;;;;;;;96.13;43.27;;;;;;;;;;5028617;28;20092;-65
2022/01/26 02:09:02;;;;;;;99.17;43.10;;;3.10;99.90;;;;;;5028345;28;20029;-66
2022/01/26 02:11:28;;;;;;;100.50;44.23;;;;;;;;;;5028678;28;20026;-66
2022/01/26 02:14:08;;;;;;;94.27;40.20;;;3.00;99.90;;;;;;5030583;28;20068;-66
2022/01/26 02:16:48;;;;;;;91.83;41.83;;;3.10;99.90;;;;;;5028735;28;20094;-65
2022/01/26 02:49:42;;;;;;;84.43;41.03;;;3.20;99.90;;;;;;5032444;28;20473;-66
2022/01/26 02:54:48;;;;;;;92.27;43.43;;;;;;;;;;5030433;28;20045;-66
2022/01/26 03:00:17;;;;;;;;;;;3.20;99.90;;;;;;5030382;28;20397;-66
2022/01/26 03:05:12;;;;;;;104.73;44.10;;;;;;;;;;5030047;28;20036;-66
2022/01/26 03:10:13;;;;;;;101.10;44.83;;;3.20;99.90;;;;;;5031016;28;20030;-65
2022/01/26 03:12:49;;;;;;;105.17;43.10;;;;;;;;;;5030838;28;20367;-66
2022/01/26 03:15:22;;;;;;;101.50;45.97;;;2.90;99.90;;;;;;5031902;28;20316;-66
2022/01/26 03:20:15;;;;;;;84.67;38.27;;;3.20;99.90;;;;;;5030725;28;20064;-66
2022/01/26 03:28:27;;;;;;;;;;;3.20;99.90;;;;;;5032131;28;20040;-66
2022/01/26 03:34:00;;;;;;;108.37;47.23;;;3.30;99.90;;;;;;5031124;28;20033;-66
2022/01/26 03:36:30;;;;;;;102.03;46.27;;;;;;;;;;5030577;28;20033;-66
2022/01/26 03:39:00;;;;;;;95.13;42.60;;;;;;;;;;5030506;28;20470;-66
2022/01/26 03:41:41;;;;;;;95.17;44.33;;;;;;;;;;5031078;28;20022;-66
2022/01/26 03:44:07;;;;;;;105.93;44.43;;;;;;;;;;5031260;28;20382;-66
2022/01/26 03:46:34;;;;;;;90.00;41.70;;;3.30;99.90;;;;;;5031150;28;20037;-66
2022/01/26 03:49:00;;;;;;;105.63;46.47;;;3.30;99.90;;;;;;5031002;28;20052;-66
2022/01/26 03:51:26;;;;;;;100.10;46.10;;;;;;;;;;5030716;28;20470;-66
2022/01/26 03:53:51;;;;;;;96.90;45.33;;;3.30;99.90;;;;;;5030736;28;20030;-66
2022/01/26 03:56:17;;;;;;;112.37;49.00;;;3.30;99.90;;;;;;5030763;28;20056;-66
2022/01/26 03:58:42;;;;;;;110.17;49.90;;;3.20;99.90;;;;;;5030659;28;20400;-66
2022/01/26 04:01:08;;;;;;;104.33;47.73;;;3.10;99.90;;;;;;5031146;28;20039;-66
2022/01/26 04:03:34;;;;;;;80.17;37.10;;;;;;;;;;5030168;28;20444;-66
2022/01/26 04:06:00;;;;;;;82.20;40.63;;;2.90;99.90;;;;;;5030518;28;20387;-66
2022/01/26 04:08:29;;;;;;;84.43;38.43;;;;;;;;;;5030903;28;20029;-66
2022/01/26 04:13:27;;;;;;;102.43;47.83;;;3.20;99.90;;;;;;5030670;28;20049;-66
2022/01/26 04:15:53;;;;;;;97.10;44.17;;;;;;;;;;5030400;28;20045;-66
2022/01/26 04:18:24;;;;;;;100.90;44.73;;;3.40;99.90;;;;;;5028275;28;20128;-66
2022/01/26 04:20:54;;;;;;;107.23;48.30;;;3.30;99.90;;;;;;5024435;28;20025;-66
2022/01/26 04:23:29;;;;;;;103.23;46.43;;;;;;;;;;5030575;28;20053;-66
2022/01/26 04:25:55;;;;;;;108.03;46.27;;;3.30;99.90;;;;;;5030382;28;20028;-66
2022/01/26 04:28:34;;;;;;;110.03;49.07;;;3.40;99.90;;;;;;5030509;28;20025;-66
2022/01/26 04:31:00;;;;;;;83.83;40.30;;;;;;;;;;5030112;28;20455;-68
2022/01/26 04:33:26;;;;;;;93.60;44.87;;;;;;;;;;5029956;28;20094;-66
2022/01/26 04:35:52;;;;;;;94.47;44.77;;;3.30;99.90;;;;;;5029599;28;20343;-66
2022/01/26 04:38:23;;;;;;;106.37;49.43;;;3.60;99.90;;;;;;5030308;28;20021;-66
2022/01/26 04:43:37;;;;;;;;;;;3.30;99.90;;;;;;5030792;28;20139;-66
2022/01/26 04:46:05;;;;;;;98.80;44.77;;;;;;;;;;5032205;28;20357;-66
2022/01/26 04:48:31;;;;;;;90.07;43.97;;;3.40;99.90;;;;;;5038545;28;20021;-66
2022/01/26 04:50:57;;;;;;;93.20;43.90;;;;;;;;;;5032534;28;20123;-66
2022/01/26 04:53:23;;;;;;;91.20;43.73;;;;;;;;;;5030040;28;20177;-66
2022/01/26 04:55:49;;;;;;;88.80;40.50;;;;;;;;;;5029137;28;20037;-66
2022/01/26 04:58:14;;;;;;;88.43;42.93;;;3.60;99.90;;;;;;5030013;28;20184;-66
2022/01/26 05:00:40;;;;;;;106.67;48.33;;;;;;;;;;5029428;28;20029;-66
2022/01/26 05:03:06;;;;;;;105.00;48.93;;;3.50;99.90;;;;;;5011620;28;20091;-66
2022/01/26 05:05:31;;;;;;;98.07;46.50;;;3.40;99.90;;;;;;5029617;28;20033;-66
2022/01/26 05:07:57;;;;;;;96.17;44.43;;;3.50;99.90;;;;;;5029458;28;20029;-66
2022/01/26 05:10:23;;;;;;;102.33;47.40;;;3.50;99.90;;;;;;5029704;28;20105;-66
2022/01/26 05:12:48;;;;;;;93.27;44.27;;;3.10;99.90;;;;;;5029217;28;20029;-66
2022/01/26 05:15:14;;;;;;;106.83;50.13;;;3.60;99.90;;;;;;5029385;28;20050;-66
2022/01/26 05:17:41;;;;;;;100.97;46.63;;;;;;;;;;5028613;28;20030;-66
2022/01/26 05:20:09;;;;;;;99.03;46.03;;;3.40;99.90;;;;;;5012085;28;20533;-66
2022/01/26 05:22:36;;;;;;;113.17;51.07;;;3.50;99.90;;;;;;5029162;28;20022;-66
2022/01/26 05:25:03;;;;;;;91.50;44.50;;;3.50;99.90;;;;;;5029600;28;20083;-66
2022/01/26 05:27:29;;;;;;;99.47;47.00;;;3.50;99.90;;;;;;5029145;28;20025;-66
2022/01/26 05:29:55;;;;;;;103.07;45.40;;;;;;;;;;5029118;28;20441;-66
2022/01/26 05:32:20;;;;;;;97.20;44.40;;;3.40;99.90;;;;;;5029030;28;20109;-66
2022/01/26 05:34:46;;;;;;;91.67;43.37;;;3.40;99.90;;;;;;5028024;28;20037;-66
2022/01/26 05:37:11;;;;;;;98.10;43.90;;;3.60;99.90;;;;;;5028588;28;20030;-66
2022/01/26 05:39:38;;;;;;;101.63;48.77;;;;;;;;;;5014954;28;20034;-66
2022/01/26 05:42:05;;;;;;;109.00;51.67;;;3.50;99.90;;;;;;5009642;28;20026;-66
2022/01/26 05:44:31;;;;;;;96.67;45.60;;;3.60;99.90;;;;;;5009469;28;20041;-66
2022/01/26 05:46:57;;;;;;;98.50;46.17;;;;;;;;;;5008954;28;20452;-66
2022/01/26 05:49:24;;;;;;;107.40;52.13;;;3.40;99.90;;;;;;5009503;28;20026;-66
2022/01/26 05:51:50;;;;;;;111.57;49.03;;;;;;;;;;5009020;28;20407;-66
2022/01/26 05:54:17;;;;;;;108.33;49.47;;;3.40;99.90;;;;;;5023764;28;20040;-66
2022/01/26 05:56:44;;;;;;;114.33;51.30;;;4.00;99.90;;;;;;5010601;28;20029;-67
2022/01/26 05:59:11;;;;;;;113.53;48.47;;;3.60;99.90;;;;;;5028880;28;20495;-66
2022/01/26 06:01:37;;;;;;;106.50;47.80;;;3.60;99.90;;;;;;5033533;28;20036;-66
2022/01/26 06:04:03;;;;;;;115.00;50.70;;;3.50;99.90;;;;;;5035596;28;20064;-66
2022/01/26 06:06:28;;;;;;;97.13;44.17;;;3.40;99.90;;;;;;5035187;28;20025;-66
2022/01/26 06:08:54;;;;;;;111.53;49.63;;;;;;;;;;5035053;28;20394;-66
2022/01/26 06:11:20;;;;;;;109.90;46.53;;;3.40;99.90;;;;;;5035512;28;20029;-66
2022/01/26 06:13:46;;;;;;;118.67;54.00;;;;;;;;;;5034754;28;20056;-66
2022/01/26 06:16:11;;;;;;;98.83;46.80;;;3.50;99.90;;;;;;5035082;28;20049;-65
2022/01/26 06:18:37;;;;;;;109.30;49.73;;;;;;;;;;5034930;28;20030;-66
2022/01/26 06:21:03;;;;;;;115.43;50.10;;;3.40;99.90;;;;;;5035405;28;20036;-66
2022/01/26 06:23:28;;;;;;;97.83;47.20;;;3.30;99.90;;;;;;5035141;28;20025;-66
2022/01/26 06:25:56;;;;;;;110.20;50.17;;;3.50;99.90;;;;;;5034956;28;20026;-66
2022/01/26 06:28:26;;;;;;;98.77;45.83;;;3.60;99.90;;;;;;5035399;28;20136;-66
2022/01/26 06:30:55;;;;;;;110.77;50.63;;;3.40;99.90;;;;;;5034574;28;20017;-66
2022/01/26 06:33:21;;;;;;;109.20;50.90;;;;;;;;;;5035229;28;20565;-66
2022/01/26 06:35:47;;;;;;;118.57;51.00;;;3.40;99.90;;;;;;5034596;28;20033;-66
2022/01/26 06:38:14;;;;;;;112.63;51.07;;;3.50;99.90;;;;;;5035012;28;20425;-66
2022/01/26 06:40:40;;;;;;;89.70;42.83;;;3.40;99.90;;;;;;5016824;28;20029;-66
2022/01/26 06:43:11;;;;;;;106.03;50.40;;;3.30;99.90;;;;;;5034784;28;20022;-66
2022/01/26 06:45:43;;;;;;;117.47;53.47;;;3.40;99.90;;;;;;5021994;28;20026;-66
2022/01/26 06:48:28;;;;;;;112.73;51.07;;;3.40;99.90;;;;;;5015640;28;20113;-66
2022/01/26 06:50:54;;;;;;;110.03;50.23;;;3.00;99.90;;;;;;5015388;28;20034;-66
2022/01/26 06:53:19;;;;;;;120.50;54.50;;;3.40;99.90;;;;;;5017778;28;20036;-66
2022/01/26 06:55:45;;;;;;;113.30;51.73;;;3.30;99.90;;;;;;5014765;28;20384;-66
2022/01/26 06:58:13;;;;;;;138.37;57.40;;;3.40;99.90;;;;;;5014897;28;20124;-66
2022/01/26 07:00:39;;;;;;;122.97;55.73;;;3.50;99.90;;;;;;5020365;28;20101;-66
2022/01/26 07:03:04;;;;;;;131.90;58.63;;;3.40;99.90;;;;;;5035107;28;20108;-67
2022/01/26 07:05:30;;;;;;;135.37;59.37;;;;;;;;;;5034824;28;20084;-66
2022/01/26 07:07:56;;;;;;;120.73;55.83;;;3.50;99.90;;;;;;5034501;28;20025;-66
2022/01/26 07:10:21;;;;;;;117.83;52.67;;;3.20;99.90;;;;;;5035002;28;20538;-66
2022/01/26 07:12:47;;;;;;;119.27;53.73;;;;;;;;;;5012542;28;20395;-66
2022/01/26 07:23:40;;;;;;;122.03;55.90;;;3.30;99.90;;;;;;5034798;28;20048;-68
2022/01/26 07:26:05;;;;;;;120.40;50.30;;;;;;;;;;5039027;28;20030;-68
2022/01/26 07:28:37;;;;;;;133.53;59.17;;;3.30;99.90;;;;;;5030969;28;20100;-68
2022/01/26 07:31:04;;;;;;;122.20;53.07;;;3.20;99.90;;;;;;5031581;28;20249;-69
2022/01/26 07:33:30;;;;;;;107.63;49.27;;;3.30;99.90;;;;;;5031346;28;20104;-68
2022/01/26 07:35:55;;;;;;;135.00;57.57;;;3.40;99.90;;;;;;5030536;28;20124;-68
2022/01/26 07:38:21;;;;;;;136.67;56.03;;;2.60;99.90;;;;;;5031641;28;20069;-68
2022/01/26 07:40:46;;;;;;;147.57;59.77;;;3.30;99.90;;;;;;5030880;28;20057;-68
2022/01/26 07:43:12;;;;;;;133.47;56.80;;;;;;;;;;5031272;28;20099;-68
2022/01/26 07:45:38;;;;;;;126.83;53.17;;;;;;;;;;5030907;28;20394;-68
2022/01/26 07:48:04;;;;;;;124.60;53.83;;;3.40;99.90;;;;;;5031356;28;20021;-68
2022/01/26 07:50:30;;;;;;;123.33;52.83;;;3.20;99.90;;;;;;5031014;28;20417;-68
2022/01/26 07:52:58;;;;;;;122.00;51.63;;;;;;;;;;5030960;28;20047;-68
2022/01/26 07:55:24;;;;;;;139.57;57.60;;;3.40;99.90;;;;;;5031172;28;20079;-68
2022/01/26 07:57:51;;;;;;;138.20;55.47;;;3.20;99.90;;;;;;5030249;28;20525;-68
2022/01/26 08:00:17;;;;;;;125.23;55.00;;;3.40;99.90;;;;;;5031193;28;20030;-68
2022/01/26 08:02:44;;;;;;;116.73;50.70;;;3.40;99.90;;;;;;5030826;28;20416;-68
2022/01/26 08:05:11;;;;;;;129.67;52.47;;;3.30;99.90;;;;;;5045248;28;20025;-68
2022/01/26 08:07:36;;;;;;;132.20;53.77;;;3.20;99.90;;;;;;5050561;28;20025;-68
2022/01/26 08:10:04;;;;;;;139.57;60.70;;;3.40;99.90;;;;;;5050569;28;20525;-68
2022/01/26 08:12:29;;;;;;;135.77;57.47;;;3.40;99.90;;;;;;5050729;28;20401;-68
2022/01/26 08:14:55;;;;;;;133.50;58.17;;;;;;;;;;5050605;28;20055;-68
2022/01/26 08:17:21;;;;;;;134.20;56.43;;;3.20;99.90;;;;;;5050976;28;20124;-68
2022/01/26 08:19:46;;;;;;;137.20;55.23;;;3.20;99.90;;;;;;5032304;28;20057;-68
2022/01/26 08:22:18;;;;;;;135.40;57.93;;;;;;;;;;5050679;28;20104;-68
2022/01/26 08:24:44;;;;;;;139.30;58.77;;;3.20;99.90;;;;;;5049538;28;20025;-68
2022/01/26 08:27:13;;;;;;;127.03;53.60;;;;;;;;;;5050541;28;20021;-68
2022/01/26 08:29:43;;;;;;;124.53;53.17;;;3.30;99.90;;;;;;5043247;28;20049;-68
2022/01/26 08:32:09;;;;;;;132.37;55.80;;;3.30;99.90;;;;;;5012780;28;20021;-68
2022/01/26 08:34:35;;;;;;;127.77;54.07;;;3.30;99.90;;;;;;5030272;28;20030;-68
2022/01/26 08:37:01;;;;;;;135.03;54.70;;;3.30;99.90;;;;;;5012450;28;20024;-68
2022/01/26 08:39:27;;;;;;;134.67;58.17;;;;;;;;;;5037100;28;20087;-68
2022/01/26 08:41:53;;;;;;;135.97;56.50;;;;;;;;;;5045073;28;20119;-68
2022/01/26 08:44:19;;;;;;;124.00;50.23;;;3.50;99.90;;;;;;5020861;28;20124;-67
2022/01/26 08:46:45;;;;;;;122.33;52.77;;;;;;;;;;5039312;28;20423;-68
2022/01/26 08:49:11;;;;;;;117.50;51.67;;;;;;;;;;5037827;28;20426;-67
2022/01/26 08:51:37;;;;;;;126.00;53.57;;;;;;;;;;5039267;28;20021;-68
2022/01/26 08:54:03;;;;;;;133.63;58.03;;;;;;;;;;5039174;28;20026;-68
2022/01/26 08:56:29;;;;;;;137.47;57.27;;;;;;;;;;5016874;28;20025;-68
2022/01/26 08:58:55;;;;;;;127.53;55.70;;;;;;;;;;5030013;28;20048;-68
2022/01/26 09:01:20;;;;;;;126.93;54.17;;;3.50;99.90;;;;;;5011122;28;20032;-68
2022/01/26 09:03:46;;;;;;;133.27;54.53;;;;;;;;;;5036668;28;20033;-68
2022/01/26 09:06:12;;;;;;;138.63;58.43;;;3.60;99.90;;;;;;5018814;28;20029;-68
2022/01/26 09:08:40;;;;;;;136.43;56.57;;;3.70;99.90;;;;;;5028726;28;20096;-68
2022/01/26 09:11:10;;;;;;;127.67;52.53;;;3.70;99.90;;;;;;5011751;28;20483;-68
2022/01/26 09:13:36;;;;;;;128.30;53.87;;;;;;;;;;5029041;28;20049;-67
2022/01/26 09:16:07;;;;;;;120.47;52.37;;;3.60;99.90;;;;;;5011451;28;20120;-67
2022/01/26 09:18:49;;;;;;;124.77;52.40;;;3.60;99.90;;;;;;5011294;28;20029;-68
2022/01/26 09:21:15;;;;;;;118.03;49.40;;;;;;;;;;5029259;28;20025;-67
2022/01/26 09:23:40;;;;;;;143.07;60.07;;;3.60;99.90;;;;;;5027839;28;20079;-68
2022/01/26 09:26:06;;;;;;;116.87;52.33;;;3.60;99.90;;;;;;5029096;28;20029;-67
2022/01/26 09:28:32;;;;;;;137.33;57.13;;;;;;;;;;5028697;28;20144;-68
2022/01/26 09:30:57;;;;;;;127.87;57.07;;;3.80;99.90;;;;;;5029010;28;20048;-67
2022/01/26 09:33:23;;;;;;;129.83;57.03;;;3.70;99.90;;;;;;5028917;28;20037;-67
2022/01/26 09:35:49;;;;;;;130.47;55.57;;;3.70;99.90;;;;;;5010461;28;20413;-68
2022/01/26 09:38:16;;;;;;;141.70;57.47;;;;;;;;;;5048473;28;20112;-68
2022/01/26 09:40:42;;;;;;;130.40;58.03;;;3.70;99.90;;;;;;5048222;28;20025;-68
2022/01/26 09:43:08;;;;;;;132.03;58.33;;;3.90;99.90;;;;;;5030710;28;20093;-68
2022/01/26 09:45:35;;;;;;;115.13;52.80;;;3.90;99.90;;;;;;5030730;28;20347;-68
2022/01/26 09:48:04;;;;;;;133.10;57.57;;;3.90;99.90;;;;;;5033615;28;20384;-68
2022/01/26 09:50:32;;;;;;;121.17;54.10;;;4.10;99.90;;;;;;5028439;28;20051;-69
2022/01/26 09:52:58;;;;;;;113.03;51.40;;;;;;;;;;5010167;28;20026;-68
2022/01/26 09:55:25;;;;;;;120.40;53.93;;;3.90;99.90;;;;;;5028580;28;20042;-69
2022/01/26 09:57:57;;;;;;;136.20;56.73;;;;;;;;;;5028291;28;20022;-69
2022/01/26 10:00:27;;;;;;;129.27;57.33;;;3.80;99.90;;;;;;5028780;28;20109;-68
2022/01/26 10:03:01;;;;;;;121.40;54.97;;;3.90;99.90;;;;;;5028107;28;20032;-69
2022/01/26 10:05:48;;;;;;;121.60;57.23;;;3.80;99.90;;;;;;5008288;28;20424;-69
2022/01/26 10:19:06;;;;;;;113.80;52.43;;;4.10;99.90;;;;;;5009069;28;20037;-68
2022/01/26 10:21:32;;;;;;;115.17;52.47;;;;;;;;;;5023669;28;20072;-68
2022/01/26 10:24:07;;;;;;;117.70;53.20;;;4.10;99.90;;;;;;5028297;28;20033;-68
2022/01/26 10:26:33;;;;;;;117.53;53.50;;;4.10;99.90;;;;;;5028413;28;20107;-68
2022/01/26 10:29:00;;;;;;;112.50;52.03;;;4.20;99.90;;;;;;5027693;28;20409;-67
2022/01/26 10:31:32;;;;;;;109.27;52.13;;;3.40;99.90;;;;;;5028014;28;20343;-68
2022/01/26 10:33:58;;;;;;;103.53;47.73;;;;;;;;;;5027939;28;20032;-68
2022/01/26 10:36:24;;;;;;;104.47;50.97;;;4.40;99.90;;;;;;5027804;28;20033;-68
2022/01/26 10:39:04;;;;;;;121.77;53.00;;;4.20;99.90;;;;;;5027747;28;20114;-68
2022/01/26 10:41:29;;;;;;;103.53;49.83;;;4.20;99.90;;;;;;5034890;28;20439;-68
2022/01/26 10:43:57;;;;;;;104.33;49.53;;;;;;;;;;5036986;28;20504;-68
2022/01/26 10:46:41;;;;;;;96.13;48.03;;;4.30;99.90;;;;;;5027638;28;20029;-68
2022/01/26 10:54:36;;;;;;;91.17;46.87;;;4.20;99.90;;;;;;5029815;28;20021;-75
2022/01/26 10:57:03;;;;;;;84.63;46.03;;;4.30;99.90;;;;;;5032227;28;20029;-76
2022/01/26 10:59:29;;;;;;;80.67;42.40;;;;;;;;;;5032272;28;20045;-75
2022/01/26 11:01:59;;;;;;;93.97;48.30;;;4.30;99.90;;;;;;5031272;28;20029;-76
2022/01/26 11:04:25;;;;;;;79.80;43.33;;;4.20;99.90;;;;;;5016731;28;20033;-75
2022/01/26 11:06:53;;;;;;;83.53;44.40;;;4.40;99.90;;;;;;5029515;28;20025;-75
2022/01/26 11:09:23;;;;;;;76.53;38.63;;;4.20;99.90;;;;;;5030743;28;20398;-75
2022/01/26 11:12:02;;;;;;;80.13;41.50;;;4.40;99.90;;;;;;5032091;28;20040;-75
2022/01/26 11:14:45;;;;;;;79.50;41.20;;;4.40;99.90;;;;;;5031691;28;20117;-76
2022/01/26 11:17:23;;;;;;;74.17;38.63;;;4.50;99.90;;;;;;5018125;28;20076;-75
2022/01/26 11:19:49;;;;;;;74.47;39.53;;;4.30;99.90;;;;;;5011912;28;20156;-76
2022/01/26 11:22:25;;;;;;;74.30;39.17;;;4.80;99.90;;;;;;5012682;28;20478;-76
2022/01/26 11:24:50;;;;;;;75.03;38.90;;;4.40;99.90;;;;;;5000614;28;20026;-76
2022/01/26 11:27:18;;;;;;;70.43;36.73;;;4.40;99.90;;;;;;5037522;28;20026;-75
2022/01/26 11:29:50;;;;;;;73.53;39.17;;;4.40;99.90;;;;;;5037783;28;20021;-75
2022/01/26 11:32:30;;;;;;;69.20;35.90;;;4.40;99.90;;;;;;5029637;28;20021;-76
2022/01/26 11:35:00;;;;;;;69.47;37.07;;;4.70;99.90;;;;;;5029073;28;20068;-75
2022/01/26 11:37:39;;;;;;;64.00;34.73;;;4.70;99.90;;;;;;5031839;28;20422;-76
2022/01/26 11:45:23;;;;;;;70.57;34.37;;;4.70;99.90;;;;;;5030637;28;20037;-75
2022/01/26 11:48:01;;;;;;;75.57;35.77;;;4.60;99.90;;;;;;5023465;28;20493;-76
2022/01/26 11:50:28;;;;;;;71.70;35.03;;;4.60;99.90;;;;;;5031542;28;20059;-76
2022/01/26 11:53:04;;;;;;;72.40;33.70;;;4.80;99.90;;;;;;5030479;28;20048;-75
2022/01/26 11:55:46;;;;;;;68.87;36.83;;;4.90;99.90;;;;;;5032125;28;20068;-76
2022/01/26 11:58:12;;;;;;;71.13;34.70;;;;;;;;;;5031401;28;20091;-75
2022/01/26 12:01:06;;;;;;;66.13;32.70;;;4.90;99.90;;;;;;5031218;28;20025;-76
2022/01/26 12:03:34;;;;;;;74.07;36.07;;;4.80;99.90;;;;;;5028651;28;20029;-76
2022/01/26 12:06:01;;;;;;;75.73;35.77;;;4.90;99.90;;;;;;5011894;28;20014;-75
2022/01/26 12:08:33;;;;;;;75.10;36.70;;;5.00;99.90;;;;;;5011867;28;20033;-76
2022/01/26 12:10:59;;;;;;;64.73;32.57;;;5.20;99.90;;;;;;5022672;28;20038;-75
2022/01/26 12:13:27;;;;;;;72.97;35.07;;;5.50;99.90;;;;;;5030397;28;20038;-75
2022/01/26 12:16:04;;;;;;;72.27;36.93;;;;;;;;;;5031132;28;20060;-76
2022/01/26 12:43:48;;;;;;;73.63;37.77;;;5.30;99.90;;;;;;5011624;28;20056;-75
2022/01/26 12:46:25;;;;;;;71.80;40.07;;;5.30;99.90;;;;;;5011159;28;20032;-76
2022/01/26 12:48:56;;;;;;;65.07;35.23;;;5.30;99.90;;;;;;5013699;28;20545;-74
2022/01/26 12:51:22;;;;;;;66.50;35.33;;;5.40;99.90;;;;;;5010055;28;20386;-76
2022/01/26 12:53:53;;;;;;;68.47;36.50;;;5.40;99.90;;;;;;5030285;28;20029;-75
2022/01/26 12:56:19;;;;;;;75.30;38.40;;;5.40;99.90;;;;;;5027830;28;20123;-74
2022/01/26 12:58:45;;;;;;;69.83;36.33;;;5.30;99.90;;;;;;5029748;28;20508;-74
2022/01/26 13:01:18;;;;;;;67.13;35.30;;;5.50;99.90;;;;;;5019308;28;20101;-75
2022/01/26 13:03:47;;;;;;;63.25;35.25;;;5.50;99.90;;;;;;5028659;28;20044;-74
2022/01/26 13:06:28;;;;;;;71.43;33.33;;;5.50;99.90;;;;;;5029745;28;20033;-75
2022/01/26 13:09:00;;;;;;;66.23;35.03;;;5.50;99.90;;;;;;5030428;28;20383;-74
2022/01/26 13:11:36;;;;;;;66.20;32.50;;;5.60;99.90;;;;;;5029021;28;20032;-74
2022/01/26 13:14:20;;;;;;;67.87;34.77;;;5.60;99.90;;;;;;5030960;28;20107;-75
2022/01/26 13:16:56;;;;;;;68.18;35.85;;;5.50;99.90;;;;;;5029748;28;20037;-74
2022/01/26 13:22:28;;;;;;;66.20;33.90;;;5.50;99.90;;;;;;5016575;28;20029;-75
2022/01/26 13:30:47;;;;;;;61.50;33.73;;;5.50;99.90;;;;;;5029471;28;20124;-74
2022/01/26 13:33:56;;;;;;;63.73;35.80;;;5.60;99.90;;;;;;5029344;28;20029;-75
2022/01/26 13:51:34;;;;;;;62.58;33.17;;;;;;;;;;5029704;28;20394;-75
2022/01/26 13:54:26;;;;;;;64.67;33.87;;;5.80;99.90;;;;;;5029354;28;20116;-75
2022/01/26 14:01:46;;;;;;;63.70;33.30;;;5.50;99.90;;;;;;5027975;28;20033;-75
2022/01/26 14:04:15;;;;;;;62.50;33.47;;;5.40;99.90;;;;;;5026965;28;20123;-74
2022/01/26 14:06:40;;;;;;;60.40;34.73;;;5.40;99.90;;;;;;5027723;28;20057;-74
2022/01/26 14:09:06;;;;;;;58.30;31.87;;;;;;;;;;5028160;28;20059;-75
2022/01/26 14:11:32;;;;;;;64.93;35.47;;;;;;;;;;5028295;28;20018;-74
2022/01/26 14:13:59;;;;;;;59.43;31.83;;;5.40;99.90;;;;;;5027039;28;20021;-75
2022/01/26 14:16:27;;;;;;;60.73;34.37;;;;;;;;;;5028038;28;20120;-75
2022/01/26 14:19:08;;;;;;;56.33;31.47;;;;;;;;;;5020747;28;20373;-75
2022/01/26 14:26:52;;;;;;;63.40;33.03;;;5.50;99.90;;;;;;5031312;28;20041;-75
2022/01/26 14:29:27;;;;;;;62.55;32.22;;;;;;;;;;5022438;28;20052;-75
2022/01/26 14:35:09;;;;;;;56.20;32.10;;;;;;;;;;4930864;29;20127;-75
2022/01/26 15:11:01;;;;;;;66.23;34.90;;;;;;;;;;4932828;29;20038;-75
2022/01/26 15:35:01;;;;;;;60.03;31.05;;;;;;;;;;5031085;28;20040;-75
2022/01/26 15:57:17;;;;;;;57.83;32.97;;;5.40;99.90;;;;;;5032478;28;20025;-76
2022/01/26 15:59:21;;;;;;;50.93;29.83;;;5.40;99.90;;;;;;5031931;28;20033;-75
2022/01/26 16:07:03;;;;;;;55.80;30.63;;;;;;;;;;5012209;28;20113;-75
2022/01/26 16:20:46;;;;;;;62.20;31.40;;;5.50;99.90;;;;;;5030707;28;20424;-76
2022/01/26 18:04:03;;;;;;;;;;;4.80;99.90;;;;;;5026929;28;20099;-79
2022/01/26 18:25:51;;;;;;;90.93;49.07;;;4.70;99.90;;;;;;5010995;28;20030;-79
2022/01/26 18:39:19;;;;;;;83.30;46.63;;;4.80;99.90;;;;;;5030135;28;20494;-79
2022/01/26 18:49:12;;;;;;;93.55;46.08;;;;;;;;;;5030226;28;20469;-79
2022/01/26 18:49:56;;;;;;;84.63;44.77;;;4.70;99.90;;;;;;5029169;28;20557;-79
2022/01/26 18:52:22;;;;;;;86.23;43.17;;;;;;;;;;5030155;28;20021;-79
2022/01/26 18:54:48;;;;;;;78.53;43.20;;;4.80;99.90;;;;;;5018205;28;20045;-79
2022/01/26 18:57:13;;;;;;;90.83;49.00;;;4.70;99.90;;;;;;5010235;28;20052;-79
2022/01/26 18:59:39;;;;;;;86.90;47.53;;;4.60;99.90;;;;;;5009578;28;20034;-78
2022/01/26 19:02:05;;;;;;;86.17;47.03;;;4.50;99.90;;;;;;4992352;28;20026;-79
2022/01/26 19:04:37;;;;;;;89.77;44.03;;;4.60;99.90;;;;;;5010425;28;20025;-79
2022/01/26 19:07:04;;;;;;;79.13;42.60;;;4.60;99.90;;;;;;5027767;28;20033;-79
2022/01/26 19:09:34;;;;;;;85.00;45.53;;;;;;;;;;5033062;28;20553;-75
2022/01/26 19:12:01;;;;;;;87.07;43.73;;;4.60;99.90;;;;;;5032499;28;20029;-75
2022/01/26 19:14:33;;;;;;;90.27;45.33;;;4.40;99.90;;;;;;5029143;28;20033;-75
2022/01/26 19:17:07;;;;;;;86.33;42.03;;;4.50;99.90;;;;;;5031596;28;20098;-75
2022/01/26 19:19:41;;;;;;;85.30;44.78;;;4.50;99.90;;;;;;5030013;28;20418;-75
2022/01/26 19:22:29;;;;;;;93.17;43.23;;;4.60;99.90;;;;;;5031872;28;20057;-75
2022/01/26 19:25:17;;;;;;;85.03;40.90;;;4.60;99.90;;;;;;5029456;28;20025;-75
2022/01/26 19:27:51;;;;;;;83.50;43.67;;;;;;;;;;5013349;28;20471;-74
2022/01/26 19:51:35;;;;;;;83.68;42.15;;;;;;;;;;5019737;28;20088;-75
2022/01/26 19:54:01;;;;;;;77.17;40.50;;;4.30;99.90;;;;;;5023723;28;20036;-74
2022/01/26 19:56:27;;;;;;;82.67;40.27;;;;;;;;;;5030439;28;20033;-74
2022/01/26 19:58:52;;;;;;;88.27;40.93;;;4.70;99.90;;;;;;5032178;28;20479;-74
2022/01/26 20:01:18;;;;;;;85.73;41.20;;;4.50;99.90;;;;;;5022882;28;20037;-74
2022/01/26 20:03:44;;;;;;;84.87;40.33;;;;;;;;;;5020564;28;20163;-74
2022/01/26 20:06:12;;;;;;;83.47;40.13;;;4.60;99.90;;;;;;5023719;28;20030;-74